createdAt,value
2024-04-22T00:00:25.661Z,101800.95
2024-04-22T00:02:55.611Z,101802.77
2024-04-22T00:05:25.559Z,101804.43
2024-04-22T00:07:55.490Z,101804.06
2024-04-22T00:10:26.010Z,101803.58
2024-04-22T00:12:56.022Z,101807.02
2024-04-22T00:15:26.120Z,101802.61
2024-04-22T00:17:56.087Z,101803.25
2024-04-22T00:20:26.181Z,101804.65
2024-04-22T00:22:56.095Z,101808.10
2024-04-22T00:25:26.203Z,101806.30
2024-04-22T00:27:56.138Z,101806.73
2024-04-22T00:30:26.501Z,101805.23
2024-04-22T00:32:56.458Z,101804.19
2024-04-22T00:35:26.563Z,101802.44
2024-04-22T00:37:56.511Z,101805.16
2024-04-22T00:40:26.878Z,101804.58
2024-04-22T00:42:56.903Z,101798.09
2024-04-22T00:45:27.042Z,101803.46
2024-04-22T00:47:57.393Z,101804.08
2024-04-22T00:50:27.870Z,101804.69
2024-04-22T00:52:58.617Z,101808.13
2024-04-22T00:55:30.005Z,101812.22
2024-04-22T00:58:04.416Z,101803.61
2024-04-22T01:00:35.918Z,101802.27
2024-04-22T01:03:06.677Z,101803.25
2024-04-22T01:05:37.318Z,101802.70
2024-04-22T01:08:08.140Z,101802.05
2024-04-22T01:10:38.843Z,101803.45
2024-04-22T01:13:08.906Z,101800.55
2024-04-22T01:15:39.166Z,101798.35
2024-04-22T01:18:09.192Z,101799.93
2024-04-22T01:20:39.171Z,101799.80
2024-04-22T01:23:09.115Z,101800.59
2024-04-22T01:25:44.193Z,101803.81
2024-04-22T01:28:14.328Z,101799.88
2024-04-22T01:30:44.599Z,101802.83
2024-04-22T01:33:14.613Z,101798.05
2024-04-22T01:35:44.678Z,101803.03
2024-04-22T01:38:14.651Z,101799.73
2024-04-22T01:40:44.660Z,101799.11
2024-04-22T01:43:14.926Z,101797.09
2024-04-22T01:45:44.960Z,101797.41
2024-04-22T01:48:14.966Z,101795.16
2024-04-22T01:50:46.593Z,101795.82
2024-04-22T01:53:16.575Z,101790.41
2024-04-22T01:55:46.520Z,101791.43
2024-04-22T01:58:16.478Z,101790.14
2024-04-22T02:00:46.436Z,101792.73
2024-04-22T02:03:16.501Z,101786.71
2024-04-22T02:05:46.472Z,101792.83
2024-04-22T02:08:16.502Z,101792.29
2024-04-22T02:10:46.651Z,101795.66
2024-04-22T02:13:16.733Z,101796.04
2024-04-22T02:15:46.671Z,101795.43
2024-04-22T02:18:18.232Z,101791.51
2024-04-22T02:20:48.353Z,101794.14
2024-04-22T02:23:18.261Z,101795.79
2024-04-22T02:25:48.305Z,101796.58
2024-04-22T02:28:18.321Z,101795.48
2024-04-22T02:30:48.444Z,101794.62
2024-04-22T02:33:18.706Z,101791.21
2024-04-22T02:35:48.678Z,101791.55
2024-04-22T02:38:18.775Z,101790.89
2024-04-22T02:40:49.074Z,101789.84
2024-04-22T02:43:19.269Z,101791.58
2024-04-22T02:45:49.376Z,101787.11
2024-04-22T02:48:19.380Z,101785.44
2024-04-22T02:50:49.599Z,101783.77
2024-04-22T02:53:19.599Z,101785.36
2024-04-22T02:55:49.583Z,101782.63
2024-04-22T02:58:19.613Z,101782.02
2024-04-22T03:00:51.542Z,101780.19
2024-04-22T03:03:21.466Z,101779.70
2024-04-22T03:05:51.398Z,101780.58
2024-04-22T03:08:21.327Z,101778.48
2024-04-22T03:10:51.276Z,101777.73
2024-04-22T03:13:21.214Z,101779.67
2024-04-22T03:15:51.222Z,101779.48
2024-04-22T03:18:21.189Z,101779.45
2024-04-22T03:20:51.166Z,101784.14
2024-04-22T03:23:21.087Z,101781.73
2024-04-22T03:25:51.006Z,101776.34
2024-04-22T03:28:21.070Z,101773.60
2024-04-22T03:30:51.085Z,101775.36
2024-04-22T03:33:21.017Z,101776.25
2024-04-22T03:35:50.943Z,101776.84
2024-04-22T03:38:21.642Z,101773.33
2024-04-22T03:40:51.590Z,101771.52
2024-04-22T03:43:21.510Z,101771.88
2024-04-22T03:46:05.473Z,101768.54
2024-04-22T03:49:04.366Z,101767.27
2024-04-22T03:51:34.525Z,101763.84
2024-04-22T03:54:04.707Z,101759.89
2024-04-22T03:56:35.072Z,101758.91
2024-04-22T03:59:05.076Z,101753.02
2024-04-22T04:01:35.014Z,101755.30
2024-04-22T04:04:05.995Z,101755.77
2024-04-22T04:06:35.950Z,101753.31
2024-04-22T04:09:05.940Z,101757.35
2024-04-22T04:11:38.116Z,101755.40
2024-04-22T04:14:09.071Z,101760.16
2024-04-22T04:16:39.094Z,101763.07
2024-04-22T04:19:09.776Z,101755.42
2024-04-22T04:21:39.975Z,101762.39
2024-04-22T04:24:10.049Z,101763.81
2024-04-22T04:26:42.414Z,101762.35
2024-04-22T04:29:12.335Z,101762.05
2024-04-22T04:31:42.334Z,101765.48
2024-04-22T04:34:12.677Z,101769.91
2024-04-22T04:36:43.083Z,101765.74
2024-04-22T04:39:13.558Z,101766.91
2024-04-22T04:41:43.630Z,101764.15
2024-04-22T04:44:13.640Z,101762.17
2024-04-22T04:46:44.261Z,101760.99
2024-04-22T04:49:14.390Z,101760.11
2024-04-22T04:51:44.290Z,101760.05
2024-04-22T04:54:14.256Z,101759.66
2024-04-22T04:56:44.544Z,101764.25
2024-04-22T04:59:14.495Z,101762.46
2024-04-22T05:01:44.707Z,101758.80
2024-04-22T05:04:14.932Z,101758.17
2024-04-22T05:06:44.939Z,101765.59
2024-04-22T05:09:16.183Z,101765.07
2024-04-22T05:11:47.102Z,101764.37
2024-04-22T05:14:17.118Z,101764.99
2024-04-22T05:16:47.680Z,101763.61
2024-04-22T05:19:19.088Z,101766.73
2024-04-22T05:21:51.340Z,101764.91
2024-04-22T05:24:21.399Z,101766.15
2024-04-22T05:26:51.368Z,101765.77
2024-04-22T05:29:21.314Z,101767.08
2024-04-22T05:31:51.377Z,101765.90
2024-04-22T05:34:39.521Z,101768.94
2024-04-22T05:37:09.559Z,101771.66
2024-04-22T05:39:40.080Z,101772.17
2024-04-22T05:42:10.436Z,101769.90
2024-04-22T05:44:40.445Z,101767.52
2024-04-22T05:47:10.370Z,101766.19
2024-04-22T05:49:40.444Z,101764.18
2024-04-22T05:52:10.664Z,101759.40
2024-04-22T05:54:41.469Z,101758.66
2024-04-22T05:57:11.404Z,101760.84
2024-04-22T05:59:41.290Z,101762.30
2024-04-22T06:02:11.266Z,101762.39
2024-04-22T06:04:41.605Z,101767.99
2024-04-22T06:07:11.669Z,101768.59
2024-04-22T06:09:41.932Z,101775.56
2024-04-22T06:12:17.953Z,101772.45
2024-04-22T06:14:49.990Z,101770.55
2024-04-22T06:17:20.004Z,101770.11
2024-04-22T06:19:50.190Z,101771.03
2024-04-22T06:22:20.374Z,101767.70
2024-04-22T06:24:50.493Z,101770.81
2024-04-22T06:27:20.590Z,101769.15
2024-04-22T06:29:50.521Z,101764.62
2024-04-22T06:32:20.554Z,101766.42
2024-04-22T06:34:50.818Z,101763.61
2024-04-22T06:37:20.817Z,101770.42
2024-04-22T06:39:51.208Z,101768.77
2024-04-22T06:42:22.610Z,101769.08
2024-04-22T06:44:52.549Z,101771.29
2024-04-22T06:47:22.591Z,101769.11
2024-04-22T06:49:52.665Z,101773.33
2024-04-22T06:52:22.735Z,101767.71
2024-04-22T06:54:52.696Z,101771.27
2024-04-22T06:57:22.631Z,101773.62
2024-04-22T06:59:52.591Z,101770.21
2024-04-22T07:02:22.830Z,101764.50
2024-04-22T07:04:53.302Z,101763.96
2024-04-22T07:07:23.448Z,101762.34
2024-04-22T07:09:53.824Z,101761.84
2024-04-22T07:12:24.083Z,101758.96
2024-04-22T07:14:54.196Z,101755.87
2024-04-22T07:17:25.138Z,101750.44
2024-04-22T07:19:55.376Z,101751.88
2024-04-22T07:22:28.655Z,101751.63
2024-04-22T07:25:03.715Z,101757.68
2024-04-22T07:27:36.867Z,101753.73
2024-04-22T07:30:11.471Z,101757.59
2024-04-22T07:32:43.009Z,101756.92
2024-04-22T07:35:15.685Z,101762.41
2024-04-22T07:37:48.887Z,101757.52
2024-04-22T07:40:23.171Z,101760.39
2024-04-22T07:42:53.310Z,101764.89
2024-04-22T07:45:27.270Z,101763.41
2024-04-22T07:47:59.291Z,101763.40
2024-04-22T07:50:29.800Z,101761.50
2024-04-22T07:53:01.467Z,101755.55
2024-04-22T07:55:35.240Z,101757.58
2024-04-22T07:58:07.375Z,101753.11
2024-04-22T08:00:39.950Z,101754.86
2024-04-22T08:03:12.257Z,101752.45
2024-04-22T08:05:43.383Z,101750.27
2024-04-22T08:08:16.839Z,101752.63
2024-04-22T08:10:47.086Z,101750.86
2024-04-22T08:13:17.775Z,101749.91
2024-04-22T08:15:48.062Z,101751.63
2024-04-22T08:18:18.350Z,101750.08
2024-04-22T08:20:48.596Z,101746.02
2024-04-22T08:23:18.666Z,101748.11
2024-04-22T08:25:48.782Z,101746.73
2024-04-22T08:28:18.954Z,101745.33
2024-04-22T08:30:49.349Z,101743.26
2024-04-22T08:33:20.086Z,101744.51
2024-04-22T08:35:50.383Z,101743.58
2024-04-22T08:38:20.931Z,101739.13
2024-04-22T08:40:51.168Z,101739.54
2024-04-22T08:43:21.689Z,101739.34
2024-04-22T08:45:51.790Z,101735.41
2024-04-22T08:48:22.444Z,101731.11
2024-04-22T08:50:54.392Z,101737.84
2024-04-22T08:53:24.436Z,101739.05
2024-04-22T08:55:55.755Z,101734.20
2024-04-22T08:58:26.161Z,101729.38
2024-04-22T09:00:58.210Z,101734.30
2024-04-22T09:03:28.370Z,101731.00
2024-04-22T09:05:58.527Z,101731.00
2024-04-22T09:08:28.816Z,101728.54
2024-04-22T09:13:33.746Z,101729.63
2024-04-22T09:16:04.872Z,101726.67
2024-04-22T09:18:37.392Z,101728.58
2024-04-22T09:21:11.452Z,101728.40
2024-04-22T09:23:42.501Z,101725.19
2024-04-22T09:26:16.011Z,101722.98
2024-04-22T09:28:50.678Z,101722.11
2024-04-22T09:31:21.926Z,101721.69
2024-04-22T09:33:54.717Z,101723.40
2024-04-22T09:36:26.834Z,101714.79
2024-04-22T09:38:59.191Z,101718.34
2024-04-22T09:41:31.324Z,101710.61
2024-04-22T09:44:08.435Z,101716.22
2024-04-22T09:46:44.657Z,101713.41
2024-04-22T09:49:19.052Z,101713.88
2024-04-22T09:51:51.418Z,101712.44
2024-04-22T09:54:21.642Z,101711.65
2024-04-22T09:56:54.158Z,101717.84
2024-04-22T09:59:25.198Z,101712.71
2024-04-22T10:01:55.687Z,101721.10
2024-04-22T10:04:26.186Z,101717.88
2024-04-22T10:06:56.883Z,101716.17
2024-04-22T10:09:28.711Z,101713.14
2024-04-22T10:12:08.176Z,101715.73
2024-04-22T10:14:38.479Z,101718.52
2024-04-22T10:17:09.271Z,101711.00
2024-04-22T10:19:39.891Z,101712.59
2024-04-22T10:22:10.433Z,101709.92
2024-04-22T10:24:41.772Z,101704.20
2024-04-22T10:27:14.964Z,101703.51
2024-04-22T10:29:45.345Z,101702.14
2024-04-22T10:32:15.503Z,101699.21
2024-04-22T10:34:46.440Z,101697.88
2024-04-22T10:37:16.948Z,101698.61
2024-04-22T10:39:47.648Z,101695.23
2024-04-22T10:42:19.206Z,101693.18
2024-04-22T10:44:49.679Z,101690.10
2024-04-22T10:47:20.163Z,101691.59
2024-04-22T10:49:50.937Z,101687.59
2024-04-22T10:52:22.001Z,101687.64
2024-04-22T10:54:53.517Z,101684.95
2024-04-22T10:57:24.087Z,101682.27
2024-04-22T10:59:54.925Z,101684.72
2024-04-22T11:02:26.091Z,101677.01
2024-04-22T11:04:56.933Z,101675.31
2024-04-22T11:07:30.299Z,101676.95
2024-04-22T11:10:01.278Z,101672.95
2024-04-22T11:12:32.254Z,101667.64
2024-04-22T11:15:03.415Z,101668.48
2024-04-22T11:17:33.964Z,101662.96
2024-04-22T11:20:15.465Z,101657.48
2024-04-22T11:22:46.802Z,101657.71
2024-04-22T11:25:17.534Z,101656.41
2024-04-22T11:27:48.418Z,101656.21
2024-04-22T11:30:19.785Z,101662.24
2024-04-22T11:32:51.755Z,101658.79
2024-04-22T11:35:22.760Z,101659.15
2024-04-22T11:37:55.978Z,101659.65
2024-04-22T11:40:26.354Z,101659.93
2024-04-22T11:42:56.639Z,101659.73
2024-04-22T11:45:26.928Z,101655.95
2024-04-22T11:47:57.088Z,101650.90
2024-04-22T11:50:27.232Z,101649.64
2024-04-22T11:53:00.348Z,101646.95
2024-04-22T11:55:35.809Z,101648.23
2024-04-22T11:58:06.447Z,101645.12
2024-04-22T12:00:37.725Z,101644.84
2024-04-22T12:03:08.244Z,101637.56
2024-04-22T12:05:38.591Z,101635.14
2024-04-22T12:08:10.024Z,101632.05
2024-04-22T12:10:40.228Z,101629.52
2024-04-22T12:13:10.382Z,101627.88
2024-04-22T12:15:40.478Z,101619.84
2024-04-22T12:18:10.970Z,101611.52
2024-04-22T12:20:41.296Z,101614.66
2024-04-22T12:23:11.605Z,101613.09
2024-04-22T12:25:41.834Z,101615.75
2024-04-22T12:39:28.340Z,101608.73
2024-04-22T12:41:58.217Z,101600.02
2024-04-22T12:48:47.868Z,101603.70
2024-04-22T12:51:17.768Z,101603.20
2024-04-22T12:53:47.648Z,101597.44
2024-04-22T12:56:17.783Z,101597.03
2024-04-22T12:58:47.868Z,101593.52
2024-04-22T13:01:18.557Z,101584.39
2024-04-22T13:03:48.805Z,101582.70
2024-04-22T13:06:18.832Z,101580.64
2024-04-22T13:08:48.951Z,101573.84
2024-04-22T13:11:22.893Z,101571.36
2024-04-22T13:13:53.081Z,101571.13
2024-04-22T13:16:23.242Z,101563.47
2024-04-22T13:18:53.203Z,101560.23
2024-04-22T13:21:23.284Z,101560.29
2024-04-22T13:23:53.278Z,101551.70
2024-04-22T13:26:23.681Z,101551.20
2024-04-22T13:28:53.663Z,101551.00
2024-04-22T13:31:32.537Z,101552.33
2024-04-22T13:34:10.456Z,101550.40
2024-04-22T13:36:40.417Z,101542.17
2024-04-22T13:39:10.355Z,101541.16
2024-04-22T13:41:40.495Z,101538.73
2024-04-22T13:44:11.003Z,101533.62
2024-04-22T13:46:43.574Z,101535.94
2024-04-22T13:49:14.936Z,101536.79
2024-04-22T13:51:46.557Z,101537.44
2024-04-22T13:54:16.714Z,101532.02
2024-04-22T13:56:46.627Z,101532.41
2024-04-22T13:59:16.652Z,101533.81
2024-04-22T14:01:47.563Z,101526.61
2024-04-22T14:04:17.604Z,101525.08
2024-04-22T14:06:47.539Z,101524.57
2024-04-22T14:09:17.646Z,101519.62
2024-04-22T14:11:47.789Z,101526.21
2024-04-22T14:14:18.162Z,101521.91
2024-04-22T14:16:48.676Z,101516.34
2024-04-22T14:19:18.701Z,101518.27
2024-04-22T14:21:48.749Z,101522.10
2024-04-22T14:24:18.807Z,101525.35
2024-04-22T14:26:48.864Z,101526.64
2024-04-22T14:29:19.007Z,101525.38
2024-04-22T14:31:49.276Z,101525.73
2024-04-22T14:34:19.455Z,101523.45
2024-04-22T14:36:49.713Z,101522.71
2024-04-22T14:39:19.705Z,101526.74
2024-04-22T14:41:49.903Z,101519.45
2024-04-22T14:44:20.104Z,101520.98
2024-04-22T14:46:50.608Z,101523.65
2024-04-22T14:49:20.800Z,101525.60
2024-04-22T14:51:50.788Z,101520.33
2024-04-22T14:54:21.074Z,101518.73
2024-04-22T14:56:51.417Z,101519.33
2024-04-22T14:59:21.613Z,101516.27
2024-04-22T15:01:52.478Z,101520.77
2024-04-22T15:04:22.799Z,101518.01
2024-04-22T15:06:54.201Z,101524.41
2024-04-22T15:09:25.769Z,101520.98
2024-04-22T15:11:55.803Z,101519.02
2024-04-22T15:14:26.041Z,101517.55
2024-04-22T15:16:56.087Z,101513.57
2024-04-22T15:19:26.404Z,101513.06
2024-04-22T15:21:56.382Z,101509.44
2024-04-22T15:24:26.622Z,101504.98
2024-04-22T15:26:56.644Z,101501.95
2024-04-22T15:29:26.670Z,101501.08
2024-04-22T15:31:56.780Z,101495.84
2024-04-22T15:34:27.040Z,101499.77
2024-04-22T15:36:57.114Z,101497.45
2024-04-22T15:39:28.501Z,101503.64
2024-04-22T15:41:58.438Z,101501.12
2024-04-22T15:44:28.372Z,101506.80
2024-04-22T15:46:58.378Z,101504.44
2024-04-22T15:49:28.393Z,101504.11
2024-04-22T15:52:00.758Z,101503.60
2024-04-22T15:54:32.429Z,101504.11
2024-04-22T15:57:02.423Z,101504.50
2024-04-22T15:59:32.430Z,101502.34
2024-04-22T16:02:02.484Z,101505.56
2024-04-22T16:04:32.603Z,101502.65
2024-04-22T16:07:02.605Z,101507.13
2024-04-22T16:12:03.218Z,101507.50
2024-04-22T16:14:33.352Z,101509.48
2024-04-22T16:17:03.304Z,101507.20
2024-04-22T16:19:33.675Z,101507.61
2024-04-22T16:22:03.847Z,101503.17
2024-04-22T16:24:33.843Z,101502.02
2024-04-22T16:27:04.707Z,101503.38
2024-04-22T16:29:34.711Z,101503.77
2024-04-22T16:32:04.883Z,101501.08
2024-04-22T16:34:35.652Z,101504.17
2024-04-22T16:37:05.788Z,101505.91
2024-04-22T16:39:36.890Z,101507.20
2024-04-22T16:42:07.320Z,101503.48
2024-04-22T16:44:38.198Z,101500.92
2024-04-22T16:47:08.221Z,101501.16
2024-04-22T16:49:38.504Z,101500.13
2024-04-22T16:52:09.018Z,101498.98
2024-04-22T16:54:38.983Z,101499.17
2024-04-22T16:57:11.363Z,101495.34
2024-04-22T16:59:44.570Z,101492.73
2024-04-22T17:02:15.039Z,101492.43
2024-04-22T17:04:45.305Z,101487.00
2024-04-22T17:07:15.275Z,101490.77
2024-04-22T17:09:45.401Z,101488.05
2024-04-22T17:12:15.369Z,101488.19
2024-04-22T17:14:45.494Z,101483.35
2024-04-22T17:17:15.472Z,101482.36
2024-04-22T17:19:45.570Z,101483.73
2024-04-22T17:22:15.547Z,101479.36
2024-04-22T17:27:15.496Z,101480.87
2024-04-22T17:29:45.433Z,101483.16
2024-04-22T17:32:15.523Z,101480.63
2024-04-22T17:34:45.535Z,101480.73
2024-04-22T17:37:18.869Z,101480.78
2024-04-22T17:39:49.331Z,101482.28
2024-04-22T17:42:21.992Z,101485.45
2024-04-22T17:44:52.093Z,101482.23
2024-04-22T17:47:22.134Z,101483.60
2024-04-22T17:49:52.122Z,101485.92
2024-04-22T17:52:22.136Z,101485.19
2024-04-22T17:54:54.888Z,101485.72
2024-04-22T17:57:24.849Z,101488.14
2024-04-22T17:59:54.792Z,101489.57
2024-04-22T18:02:24.916Z,101487.91
2024-04-22T18:04:55.994Z,101494.16
2024-04-22T18:07:26.344Z,101492.35
2024-04-22T18:09:56.310Z,101493.05
2024-04-22T18:12:26.234Z,101496.30
2024-04-22T18:14:56.163Z,101498.52
2024-04-22T18:17:26.203Z,101493.72
2024-04-22T18:19:56.181Z,101495.96
2024-04-22T18:22:29.711Z,101499.84
2024-04-22T18:25:00.193Z,101502.05
2024-04-22T18:27:30.420Z,101498.53
2024-04-22T18:30:02.738Z,101503.30
2024-04-22T18:32:33.382Z,101506.14
2024-04-22T18:35:03.445Z,101509.21
2024-04-22T18:37:34.064Z,101512.69
2024-04-22T18:40:04.496Z,101513.60
2024-04-22T18:42:34.776Z,101514.30
2024-04-22T18:45:05.335Z,101515.85
2024-04-22T18:47:37.140Z,101520.61
2024-04-22T18:50:08.151Z,101515.25
2024-04-22T18:52:38.504Z,101521.57
2024-04-22T18:55:09.475Z,101523.19
2024-04-22T18:57:39.610Z,101526.56
2024-04-22T19:00:11.864Z,101530.06
2024-04-22T19:02:42.151Z,101527.42
2024-04-22T19:05:12.640Z,101526.15
2024-04-22T19:07:43.028Z,101526.54
2024-04-22T19:10:13.190Z,101530.55
2024-04-22T19:12:43.336Z,101532.16
2024-04-22T19:15:13.549Z,101531.09
2024-04-22T19:17:43.774Z,101534.11
2024-04-22T19:20:14.247Z,101537.59
2024-04-22T19:22:44.297Z,101537.55
2024-04-22T19:25:14.460Z,101537.92
2024-04-22T19:27:44.929Z,101539.40
2024-04-22T19:30:15.399Z,101540.91
2024-04-22T19:32:45.680Z,101538.27
2024-04-22T19:35:17.083Z,101540.48
2024-04-22T19:37:47.387Z,101538.91
2024-04-22T19:40:18.177Z,101538.05
2024-04-22T19:42:48.652Z,101536.98
2024-04-22T19:45:20.965Z,101538.43
2024-04-22T19:47:51.119Z,101536.27
2024-04-22T19:50:23.188Z,101534.61
2024-04-22T19:52:53.610Z,101534.06
2024-04-22T19:55:24.079Z,101536.16
2024-04-22T19:57:54.945Z,101539.31
2024-04-22T20:00:25.344Z,101537.52
2024-04-22T20:02:55.469Z,101538.40
2024-04-22T20:05:25.888Z,101543.02
2024-04-22T20:07:56.407Z,101549.08
2024-04-22T20:10:27.508Z,101549.27
2024-04-22T20:12:57.833Z,101551.05
2024-04-22T20:15:30.246Z,101551.41
2024-04-22T20:18:16.273Z,101548.89
2024-04-22T20:20:55.497Z,101552.76
2024-04-22T20:23:25.740Z,101553.31
2024-04-22T20:26:00.238Z,101551.27
2024-04-22T20:28:30.581Z,101548.70
2024-04-22T20:31:03.615Z,101545.70
2024-04-22T20:33:33.766Z,101548.44
2024-04-22T20:36:04.264Z,101548.08
2024-04-22T20:38:34.995Z,101544.98
2024-04-22T20:41:05.818Z,101548.42
2024-04-22T20:43:36.235Z,101547.02
2024-04-22T20:46:06.533Z,101547.77
2024-04-22T20:48:39.381Z,101549.64
2024-04-22T20:51:09.866Z,101554.46
2024-04-22T20:53:39.845Z,101553.88
2024-04-22T20:56:10.052Z,101555.05
2024-04-22T20:58:40.012Z,101553.63
2024-04-22T21:01:11.020Z,101552.65
2024-04-22T21:03:41.206Z,101549.69
2024-04-22T21:06:11.198Z,101551.10
2024-04-22T21:08:41.105Z,101554.42
2024-04-22T21:11:11.199Z,101554.25
2024-04-22T21:13:45.854Z,101554.23
2024-04-22T21:16:15.822Z,101553.64
2024-04-22T21:18:45.785Z,101559.27
2024-04-22T21:21:15.767Z,101557.55
2024-04-22T21:23:45.726Z,101553.42
2024-04-22T21:26:15.800Z,101552.29
2024-04-22T21:28:45.808Z,101551.01
2024-04-22T21:31:15.863Z,101551.73
2024-04-22T21:33:58.668Z,101553.02
2024-04-22T21:36:35.739Z,101547.78
2024-04-22T21:39:06.027Z,101543.91
2024-04-22T21:41:35.954Z,101546.61
2024-04-22T21:44:06.259Z,101548.79
2024-04-22T21:46:36.238Z,101546.88
2024-04-22T21:49:06.209Z,101553.53
2024-04-22T21:51:36.135Z,101549.68
2024-04-22T21:54:06.299Z,101550.92
2024-04-22T21:56:33.461Z,101551.83
2024-04-22T21:59:38.599Z,101550.59
2024-04-22T22:02:43.585Z,101558.36
2024-04-22T22:05:49.106Z,101557.90
2024-04-22T22:08:16.258Z,101559.29
2024-04-22T22:10:46.300Z,101559.63
2024-04-22T22:13:16.540Z,101561.08
2024-04-22T22:15:46.518Z,101560.45
2024-04-22T22:18:16.537Z,101561.30
2024-04-22T22:20:48.252Z,101560.63
2024-04-22T22:23:18.223Z,101562.59
2024-04-22T22:25:48.111Z,101563.84
2024-04-22T22:28:18.065Z,101560.55
2024-04-22T22:30:47.973Z,101558.21
2024-04-22T22:33:17.890Z,101554.46
2024-04-22T22:35:47.840Z,101552.45
2024-04-22T22:38:17.817Z,101550.17
2024-04-22T22:40:47.787Z,101549.73
2024-04-22T22:43:17.720Z,101549.33
2024-04-22T22:45:47.668Z,101551.98
2024-04-22T22:48:17.799Z,101550.70
2024-04-22T22:50:47.956Z,101553.99
2024-04-22T22:53:17.844Z,101552.31
2024-04-22T22:55:47.855Z,101551.94
2024-04-22T22:58:17.941Z,101550.46
2024-04-22T23:00:47.930Z,101546.52
2024-04-22T23:03:17.882Z,101551.02
2024-04-22T23:05:47.815Z,101551.98
2024-04-22T23:08:17.751Z,101548.01
2024-04-22T23:10:47.654Z,101547.01
2024-04-22T23:13:17.599Z,101545.87
2024-04-22T23:15:47.496Z,101542.61
2024-04-22T23:18:17.514Z,101543.68
2024-04-22T23:20:47.421Z,101543.75
2024-04-22T23:23:17.337Z,101547.86
2024-04-22T23:25:47.275Z,101545.30
2024-04-22T23:28:17.229Z,101541.96
2024-04-22T23:30:47.148Z,101536.51
2024-04-22T23:33:17.148Z,101536.69
2024-04-22T23:35:47.077Z,101538.41
2024-04-22T23:38:17.041Z,101533.24
2024-04-22T23:40:47.011Z,101539.92
2024-04-22T23:43:16.990Z,101541.89
2024-04-22T23:45:46.924Z,101549.52
2024-04-22T23:48:17.131Z,101548.20
2024-04-22T23:50:47.142Z,101544.96
2024-04-22T23:53:17.108Z,101540.77
2024-04-22T23:55:47.090Z,101537.48
2024-04-22T23:58:17.125Z,101537.55
